Latest Weather Observations for Nambour

IDQ60901

Issued at 9:31 pm EST Thursday 25 August 2016 (issued every 10 minutes, with the page automatically refreshed every 10 minutes)

About weather observations | Map of Brisbane area stations | Latest observations for Brisbane area | Other Formats
Station Details ID: 040988 Name: NAMBOUR DAFF - HILLSIDE Lat: -26.64 Lon: 152.94 Height: 53.24 m
Data from the previous 72 hours. | See also: Recent months at Nambour
Date/Time
EST
Temp
°C
App
Temp
°C
Dew
Point
°C
Rel
Hum
%
Delta-T
°C
Wind Press
QNH
hPa
Press
MSL
hPa
Rain since
9am
mm
Dir  Spd
km/h
Gust
km/h
Spd
kts
Gust
kts
25/09:30pm 12.9 11.1 3.6 53 4.2 NE 2 9 1 5 1016.2 1016.1 0.0
25/09:00pm 13.5 11.7 3.3 50 4.6 SSE 2 13 1 7 1016.3 1016.2 0.0
25/08:30pm 13.5 11.7 3.6 51 4.5 ENE 2 7 1 4 1016.2 1016.1 0.0
25/08:00pm 14.0 11.9 3.8 50 4.6 W 4 13 2 7 1015.9 1015.8 0.0
25/07:30pm 14.4 12.8 4.4 51 4.6 SSW 2 6 1 3 1015.5 1015.4 0.0
25/07:00pm 15.1 13.4 4.2 48 5.0 SW 2 7 1 4 1014.9 1014.8 0.0
25/06:30pm 15.3 12.8 3.8 46 5.3 WSW 6 7 3 4 1014.3 1014.2 0.0
25/06:00pm 16.0 13.9 4.1 45 5.5 WSW 4 9 2 5 1013.7 1013.6 0.0
25/05:30pm 17.2 14.4 3.1 39 6.5 WSW 7 13 4 7 1012.9 1012.8 0.0
25/05:00pm 18.7 15.9 2.9 35 7.3 W 7 13 4 7 1012.7 1012.6 0.0
25/04:30pm 19.8 16.8 2.2 31 8.1 WSW 7 15 4 8 1012.2 1012.1 0.0
25/04:00pm 20.3 17.0 2.2 30 8.4 WSW 9 19 5 10 1011.8 1011.7 0.0
25/03:30pm 20.6 17.2 2.0 29 8.6 WSW 9 22 5 12 1011.4 1011.3 0.0
25/03:00pm 20.8 16.4 2.6 30 8.5 WSW 15 24 8 13 1011.2 1011.1 0.0
25/02:30pm 20.8 16.9 3.5 32 8.3 SW 13 24 7 13 1011.0 1010.9 0.0
25/02:00pm 21.0 17.9 3.7 32 8.3 SW 9 19 5 10 1010.9 1010.8 0.0
25/01:30pm 20.8 18.0 3.1 31 8.4 WSW 7 17 4 9 1011.1 1011.0 0.0
25/01:00pm 20.7 16.8 3.4 32 8.2 WSW 13 26 7 14 1011.2 1011.1 0.0
25/12:30pm 20.5 16.6 3.3 32 8.2 WSW 13 26 7 14 1011.3 1011.2 0.0
25/12:00pm 19.7 14.8 2.1 31 8.1 WSW 17 32 9 17 1011.2 1011.1 0.0
25/11:30am 19.3 14.9 2.6 33 7.7 WSW 15 32 8 17 1011.6 1011.5 0.0
25/11:00am 19.3 15.7 5.0 39 7.0 SW 13 26 7 14 1011.4 1011.3 0.0
25/10:30am 18.9 17.1 8.0 49 5.6 WSW 7 17 4 9 1011.7 1011.6 0.0
25/10:00am 17.8 15.8 7.0 49 5.4 SW 7 20 4 11 1012.0 1011.9 0.0
25/09:30am 16.8 14.9 6.9 52 4.9 W 6 15 3 8 1012.4 1012.3 0.0
25/09:00am 16.6 15.2 7.3 54 4.6 NW 4 9 2 5 1012.5 1012.4 2.0
25/08:30am 15.4 12.2 6.9 57 4.2 WSW 13 20 7 11 1012.3 1012.2 2.0
25/08:00am 15.9 14.1 7.9 59 4.0 WSW 7 19 4 10 1012.7 1012.6 2.0
25/07:30am 15.7 14.0 8.2 61 3.8 WSW 7 17 4 9 1012.3 1012.2 2.0
25/07:00am 15.9 13.8 8.2 60 3.9 SW 9 19 5 10 1011.6 1011.5 2.0
25/06:30am 15.9 14.6 9.1 64 3.5 SSW 6 20 3 11 1011.2 1011.1 2.0
25/06:00am 16.3 15.1 9.5 64 3.5 SW 6 15 3 8 1011.4 1011.3 2.0
25/05:59am 16.3 15.1 9.5 64 3.5 SW 6 11 3 6 1011.4 1011.3 2.0
25/05:30am 16.6 15.3 9.1 61 3.9 W 6 15 3 8 1009.4 1009.3 2.0
25/05:00am 17.1 15.3 9.5 61 4.0 W 9 20 5 11 1010.6 1010.5 2.0
25/04:30am 17.5 16.0 10.4 63 3.8 WSW 9 17 5 9 1010.5 1010.4 2.0
25/04:00am 17.8 17.5 11.6 67 3.4 SW 4 9 2 5 1009.0 1008.9 2.0
25/03:30am 18.6 17.8 11.7 64 3.8 W 7 15 4 8 1008.3 1008.3 2.0
25/03:00am 18.8 18.7 13.4 71 3.1 WNW 6 15 3 8 1009.4 1009.3 2.0
25/02:30am 18.5 19.7 13.8 74 2.7 CALM 0 4 0 2 1009.1 1009.0 2.0
25/02:00am 18.2 18.3 13.9 76 2.5 NW 6 7 3 4 1009.0 1008.9 2.0
25/01:30am 19.1 18.6 13.9 72 3.0 NW 9 19 5 10 1007.3 1007.3 2.0
25/01:00am 18.6 19.1 14.1 75 2.6 W 4 7 2 4 1008.5 1008.4 2.0
25/12:30am 18.7 19.1 14.8 78 2.3 W 6 13 3 7 1008.8 1008.7 2.0
25/12:00am 18.4 19.3 15.1 81 1.9 NW 4 9 2 5 1008.8 1008.7 2.0
 
Date/Time
EST
Temp
°C
App
Temp
°C
Dew
Point
°C
Rel
Hum
%
Delta-T
°C
Wind Press
QNH
hPa
Press
MSL
hPa
Rain since
9am
mm
Dir  Spd
km/h
Gust
km/h
Spd
kts
Gust
kts
24/11:30pm 18.3 19.4 15.7 85 1.5 W 4 7 2 4 1008.5 1008.4 2.0
24/11:00pm 17.6 19.6 17.0 96 0.4 N 2 9 1 5 1008.3 1008.3 2.0
24/10:30pm 17.0 18.3 16.2 95 0.5 N 4 6 2 3 1008.6 1008.5 2.0
24/10:00pm 17.1 18.8 16.1 94 0.6 N 2 4 1 2 1008.6 1008.5 2.0
24/09:30pm 17.6 18.7 16.6 94 0.6 NNW 6 9 3 5 1008.8 1008.7 1.8
24/09:00pm 17.4 18.8 16.4 94 0.6 NW 4 9 2 5 1009.0 1008.9 1.8
24/08:30pm 17.5 18.9 16.4 93 0.7 WNW 4 7 2 4 1009.2 1009.1 1.4
24/08:00pm 17.4 19.1 16.3 93 0.7 NW 2 4 1 2 1008.7 1008.6 1.4
24/07:30pm 17.5 19.3 16.4 93 0.7 NE 2 6 1 3 1008.6 1008.5 1.4
24/07:00pm 17.6 19.6 15.9 90 1.0 CALM 0 4 0 2 1009.1 1009.0 1.4
24/06:30pm 17.6 19.0 15.4 87 1.3 SE 2 7 1 4 1008.9 1008.8 1.4
24/06:00pm 18.4 19.0 15.3 82 1.8 SE 6 9 3 5 1009.0 1008.9 1.0
24/05:30pm 19.3 21.3 16.0 81 2.0 CALM 0 0 0 0 1008.6 1008.5 1.0
24/05:00pm 19.7 20.8 15.6 77 2.4 SW 4 4 2 2 1007.9 1007.9 1.0
24/04:30pm 20.6 21.7 15.6 73 3.0 ESE 4 6 2 3 1007.1 1007.1 1.0
24/04:00pm 21.4 23.1 15.3 68 3.6 CALM 0 0 0 0 1006.9 1006.9 1.0
24/03:30pm 21.5 22.6 14.6 65 4.1 SW 2 6 1 3 1006.7 1006.7 1.0
24/03:00pm 21.4 23.0 15.9 71 3.3 NNE 2 4 1 2 1006.3 1006.3 1.0
24/02:30pm 20.8 21.8 15.4 71 3.2 WNW 4 9 2 5 1006.5 1006.5 1.0
24/02:00pm 20.4 21.0 15.8 75 2.8 WNW 7 19 4 10 1006.5 1006.5 1.0
24/01:30pm 20.6 19.1 16.2 76 2.6 W 19 41 10 22 1006.3 1006.3 0.6
24/01:00pm 25.6 24.5 15.3 53 6.3 WNW 15 33 8 18 1005.2 1005.2 0.0
24/12:30pm 26.1 25.6 15.8 53 6.3 NW 13 22 7 12 1005.6 1005.6 0.0
24/12:00pm 25.7 24.7 15.7 54 6.1 WNW 15 37 8 20 1006.0 1006.0 0.0
24/11:30am 24.5 24.5 16.2 60 5.1 NNW 11 35 6 19 1006.8 1006.8 0.0
24/11:00am 23.9 23.8 16.9 65 4.3 NNW 13 30 7 16 1007.3 1007.3 0.0
24/10:30am 23.7 24.5 17.2 67 4.0 NNW 9 17 5 9 1007.8 1007.8 0.0
24/10:00am 23.4 23.9 17.4 69 3.7 NNW 11 24 6 13 1008.3 1008.3 0.0
24/09:30am 23.1 24.9 18.2 74 3.1 N 6 15 3 8 1008.8 1008.7 0.0
24/09:00am 22.4 23.0 17.8 75 2.9 NNW 11 20 6 11 1009.1 1009.0 3.2
24/08:30am 22.2 24.2 19.2 83 1.9 N 7 22 4 12 1009.1 1009.0 3.2
24/08:00am 20.8 23.6 19.6 93 0.8 NE 4 6 2 3 1009.3 1009.2 3.2
24/07:30am 20.6 23.5 19.8 95 0.5 NNE 4 7 2 4 1009.2 1009.1 3.2
24/07:00am 20.0 23.0 19.3 96 0.4 NE 2 4 1 2 1009.0 1008.9 3.2
24/06:30am 19.9 22.9 19.2 96 0.4 NNW 2 6 1 3 1008.7 1008.6 3.2
24/06:00am 19.9 22.1 19.2 96 0.4 NNW 6 9 3 5 1008.5 1008.4 3.0
24/05:30am 19.9 22.1 19.2 96 0.4 NNW 6 11 3 6 1008.1 1008.1 3.0
24/05:00am 19.6 22.0 18.9 96 0.4 NW 4 6 2 3 1008.0 1008.0 2.8
24/04:30am 19.7 22.5 18.9 95 0.5 NW 2 4 1 2 1008.2 1008.2 2.6
24/04:00am 19.7 22.5 18.9 95 0.5 NNW 2 6 1 3 1008.1 1008.1 1.6
24/03:30am 19.8 21.4 19.1 96 0.4 N 9 17 5 9 1008.7 1008.6 1.6
24/03:00am 19.2 21.8 18.4 95 0.5 WNW 2 2 1 1 1009.2 1009.1 1.4
24/02:30am 19.1 21.2 18.1 94 0.6 NNE 4 7 2 4 1009.5 1009.4 1.4
24/02:00am 19.3 21.8 18.1 93 0.7 NNE 2 6 1 3 1010.0 1009.9 0.0
24/01:30am 19.4 21.9 18.1 92 0.8 N 2 4 1 2 1010.4 1010.3 0.0
24/01:00am 19.5 21.6 18.2 92 0.8 N 4 11 2 6 1010.9 1010.8 0.0
24/12:30am 19.5 21.6 18.0 91 0.9 N 4 6 2 3 1011.0 1010.9 0.0
24/12:00am 19.7 21.1 17.7 88 1.2 NNE 7 19 4 10 1011.3 1011.2 0.0
 
Date/Time
EST
Temp
°C
App
Temp
°C
Dew
Point
°C
Rel
Hum
%
Delta-T
°C
Wind Press
QNH
hPa
Press
MSL
hPa
Rain since
9am
mm
Dir  Spd
km/h
Gust
km/h
Spd
kts
Gust
kts
23/11:30pm 20.2 21.2 16.8 81 2.1 NNW 7 15 4 8 1012.2 1012.1 0.0
23/11:00pm 20.5 21.7 16.9 80 2.2 N 6 9 3 5 1012.2 1012.1 0.0
23/10:30pm 20.6 21.7 17.2 81 2.1 N 7 13 4 7 1012.6 1012.5 0.0
23/10:00pm 20.7 22.5 17.3 81 2.1 N 4 9 2 5 1013.0 1012.9 0.0
23/09:30pm 20.7 22.5 17.3 81 2.1 NNE 4 9 2 5 1013.1 1013.0 0.0
23/09:00pm 20.6 22.3 17.2 81 2.1 NNW 4 9 2 5 1013.3 1013.2 0.0
23/08:30pm 21.0 22.3 17.2 79 2.3 N 6 11 3 6 1013.4 1013.3 0.0
23/08:00pm 20.6 22.6 17.0 80 2.2 NNW 2 2 1 1 1013.1 1013.0 0.0
23/07:30pm 20.7 22.7 16.9 79 2.3 NNW 2 6 1 3 1013.2 1013.1 0.0
23/07:00pm 20.8 22.7 16.8 78 2.4 NNE 2 7 1 4 1013.0 1012.9 0.0
23/06:30pm 20.7 22.3 15.9 74 2.9 NE 2 2 1 1 1012.7 1012.6 0.0
23/06:00pm 21.6 23.5 15.7 69 3.5 CALM 0 0 0 0 1012.5 1012.4 0.0
23/05:30pm 22.2 22.9 15.5 66 4.0 NNE 6 9 3 5 1012.2 1012.1 0.0
23/05:00pm 22.9 23.8 16.0 65 4.2 NE 6 9 3 5 1011.9 1011.8 0.0
23/04:30pm 23.5 23.8 16.1 63 4.5 NE 9 13 5 7 1011.6 1011.5 0.0
23/04:00pm 24.3 25.0 15.5 58 5.3 ENE 6 11 3 6 1011.6 1011.5 0.0
23/03:30pm 26.1 25.2 12.5 42 7.9 NNE 9 15 5 8 1011.3 1011.2 0.0
23/03:00pm 26.1 25.6 12.5 42 7.9 NNE 7 19 4 10 1011.3 1011.2 0.0
23/02:30pm 26.2 24.8 12.3 42 8.0 NNE 11 20 6 11 1011.3 1011.2 0.0
23/02:00pm 26.1 25.1 12.2 42 8.0 N 9 17 5 9 1011.8 1011.7 0.0
23/01:30pm 25.7 25.2 12.5 44 7.6 NNW 7 15 4 8 1012.1 1012.0 0.0
23/01:00pm 25.4 24.9 12.6 45 7.4 NNE 7 13 4 7 1012.0 1011.9 0.0
23/12:30pm 25.4 24.1 12.6 45 7.4 NNW 11 20 6 11 1012.6 1012.5 0.0
23/12:00pm 25.1 24.0 13.0 47 7.0 NNW 11 22 6 12 1013.5 1013.4 0.0
23/11:30am 24.5 24.1 14.0 52 6.2 NNW 9 17 5 9 1014.2 1014.1 0.0
23/11:00am 24.5 23.2 13.7 51 6.3 NNW 13 24 7 13 1014.4 1014.3 0.0
23/10:30am 23.4 22.9 14.9 59 5.1 NNW 11 26 6 14 1014.7 1014.6 0.0
23/10:00am 23.3 22.9 15.1 60 4.9 NNW 11 20 6 11 1015.0 1014.9 0.0
23/09:30am 22.5 21.6 14.9 62 4.5 NNW 13 22 7 12 1015.1 1015.0 0.0
23/09:00am 21.7 21.7 15.1 66 3.9 N 9 17 5 9 1014.9 1014.8 0.0
23/08:30am 20.9 21.1 15.7 72 3.1 N 9 15 5 8 1014.4 1014.3 0.0
23/08:00am 20.3 20.9 15.9 76 2.6 N 7 9 4 5 1014.3 1014.2 0.0
23/07:30am 19.4 20.0 15.7 79 2.2 NNW 7 13 4 7 1014.6 1014.5 0.0
23/07:00am 18.3 18.9 15.2 82 1.8 NNW 6 9 3 5 1014.9 1014.8 0.0
23/06:30am 17.4 18.3 15.0 86 1.4 N 4 7 2 4 1015.1 1015.0 0.0
23/06:00am 17.3 18.5 14.9 86 1.4 NNE 2 6 1 3 1014.9 1014.8 0.0
23/05:30am 17.1 18.1 14.4 84 1.6 N 2 4 1 2 1015.0 1014.9 0.0
23/05:00am 17.2 17.8 14.3 83 1.7 NE 4 6 2 3 1014.7 1014.6 0.0
23/04:30am 17.4 18.5 14.7 84 1.6 NW 2 4 1 2 1014.5 1014.4 0.0
23/04:00am 17.1 17.8 14.4 84 1.6 NNW 4 6 2 3 1014.6 1014.5 0.0
23/03:30am 17.2 17.6 14.7 85 1.4 NW 6 11 3 6 1014.5 1014.4 0.0
23/03:00am 17.0 17.3 14.6 86 1.4 WNW 6 9 3 5 1014.6 1014.5 0.0
23/02:30am 17.2 17.6 14.7 85 1.4 WNW 6 7 3 4 1014.7 1014.6 0.0
23/02:00am 16.7 17.7 14.2 85 1.4 NW 2 4 1 2 1014.9 1014.8 0.0
23/01:30am 16.5 16.9 13.8 84 1.5 NNW 4 6 2 3 1014.9 1014.8 0.0
23/01:00am 16.8 17.3 14.1 84 1.5 WNW 4 6 2 3 1015.5 1015.4 0.0
23/12:30am 16.8 17.3 13.9 83 1.6 NNW 4 6 2 3 1015.6 1015.5 0.0
23/12:00am 17.1 17.2 14.0 82 1.8 NNW 6 6 3 3 1015.9 1015.8 0.0
 
Date/Time
EST
Temp
°C
App
Temp
°C
Dew
Point
°C
Rel
Hum
%
Delta-T
°C
Wind Press
QNH
hPa
Press
MSL
hPa
Rain since
9am
mm
Dir  Spd
km/h
Gust
km/h
Spd
kts
Gust
kts
22/11:30pm 17.2 17.5 14.5 84 1.6 NNW 6 7 3 4 1015.9 1015.8 0.0
22/11:00pm 16.7 17.2 14.0 84 1.5 NW 4 6 2 3 1016.1 1016.0 0.0
22/10:30pm 17.4 17.6 14.1 81 1.9 NW 6 7 3 4 1016.0 1015.9 0.0
22/10:00pm 17.9 18.5 14.2 79 2.1 NW 4 7 2 4 1015.8 1015.7 0.0

Latest Capital City Observations: Canberra | Sydney | Melbourne | Brisbane | Adelaide | Perth | Hobart | Darwin

Other Formats:

Comma delimited format used in spreadsheet applications
http://www.bom.gov.au/fwo/IDQ60901/IDQ60901.95572.axf

JavaScript Object Notation format (JSON) in row-major order
http://www.bom.gov.au/fwo/IDQ60901/IDQ60901.95572.json